createdAt,value
2022-11-25T00:01:05.435Z,3.89
2022-11-25T00:06:15.963Z,3.79
2022-11-25T00:11:19.593Z,3.59
2022-11-25T00:16:23.345Z,3.45
2022-11-25T00:21:29.578Z,3.43
2022-11-25T00:26:33.787Z,3.44
2022-11-25T00:31:41.376Z,3.40
2022-11-25T00:36:46.031Z,3.24
2022-11-25T00:42:06.142Z,3.19
2022-11-25T00:47:12.367Z,3.17
2022-11-25T00:52:19.007Z,3.14
2022-11-25T00:57:24.651Z,3.21
2022-11-25T01:02:27.678Z,3.23
2022-11-25T01:07:32.243Z,3.10
2022-11-25T01:12:35.069Z,3.11
2022-11-25T01:17:37.852Z,3.11
2022-11-25T01:22:41.972Z,3.16
2022-11-25T01:27:44.709Z,3.17
2022-11-25T01:32:47.487Z,3.19
2022-11-25T01:37:51.663Z,3.23
2022-11-25T01:42:54.415Z,3.25
2022-11-25T01:48:01.325Z,3.25
2022-11-25T01:53:09.148Z,3.25
2022-11-25T01:58:16.151Z,3.27
2022-11-25T02:03:23.031Z,3.26
2022-11-25T02:08:27.741Z,3.36
2022-11-25T02:13:30.690Z,3.45
2022-11-25T02:18:33.663Z,3.46
2022-11-25T02:23:44.616Z,3.46
2022-11-25T02:28:49.793Z,3.54
2022-11-25T02:33:53.348Z,3.69
2022-11-25T02:38:58.053Z,3.88
2022-11-25T02:44:04.958Z,3.87
2022-11-25T02:49:10.208Z,4.03
2022-11-25T02:54:14.482Z,3.97
2022-11-25T02:59:18.751Z,4.02
2022-11-25T03:04:22.756Z,4.17
2022-11-25T03:09:25.577Z,4.03
2022-11-25T03:14:31.451Z,4.03
2022-11-25T03:19:34.297Z,4.09
2022-11-25T03:24:37.273Z,4.07
2022-11-25T03:29:41.944Z,4.09
2022-11-25T03:34:44.836Z,4.05
2022-11-25T03:39:47.765Z,4.06
2022-11-25T03:44:52.144Z,4.02
2022-11-25T03:49:55.383Z,3.99
2022-11-25T03:54:58.370Z,4.02
2022-11-25T04:00:09.366Z,4.00
2022-11-25T04:05:20.787Z,4.00
2022-11-25T04:10:25.110Z,4.10
2022-11-25T04:15:31.011Z,4.19
2022-11-25T04:20:35.038Z,4.28
2022-11-25T04:25:41.112Z,4.22
2022-11-25T04:30:50.607Z,4.28
2022-11-25T04:35:53.972Z,4.44
2022-11-25T04:40:57.248Z,4.48
2022-11-25T04:46:18.221Z,4.32
2022-11-25T04:51:26.371Z,4.53
2022-11-25T04:56:33.734Z,4.48
2022-11-25T05:01:38.411Z,4.64
2022-11-25T05:06:59.595Z,4.62
2022-11-25T05:12:03.037Z,4.58
2022-11-25T05:17:08.834Z,4.62
2022-11-25T05:22:12.336Z,4.73
2022-11-25T05:27:18.105Z,4.77
2022-11-25T05:32:22.811Z,4.74
2022-11-25T05:37:25.914Z,4.79
2022-11-25T05:42:38.122Z,4.90
2022-11-25T05:47:44.835Z,4.62
2022-11-25T05:52:51.564Z,4.68
2022-11-25T05:57:54.507Z,4.60
2022-11-25T06:02:59.231Z,4.52
2022-11-25T06:08:02.711Z,4.65
2022-11-25T06:13:05.845Z,4.76
2022-11-25T06:18:10.462Z,4.88
2022-11-25T06:23:14.081Z,4.87
2022-11-25T06:28:17.034Z,4.83
2022-11-25T06:33:25.468Z,4.84
2022-11-25T06:38:29.034Z,4.91
2022-11-25T06:43:32.715Z,4.81
2022-11-25T06:48:37.670Z,4.90
2022-11-25T06:53:41.114Z,4.81
2022-11-25T06:58:44.845Z,4.92
2022-11-25T07:03:50.807Z,5.03
2022-11-25T07:08:53.744Z,5.05
2022-11-25T07:13:58.569Z,4.97
2022-11-25T07:19:04.244Z,5.22
2022-11-25T07:24:08.657Z,5.41
2022-11-25T07:29:43.997Z,5.46
2022-11-25T07:34:37.380Z,5.58
2022-11-25T07:39:40.199Z,5.61
2022-11-25T07:44:42.972Z,5.59
2022-11-25T07:50:10.705Z,5.45
2022-11-25T07:55:13.509Z,5.39
2022-11-25T08:00:17.303Z,5.44
2022-11-25T08:05:21.396Z,5.46
2022-11-25T08:10:24.300Z,5.43
2022-11-25T08:15:27.105Z,5.45
2022-11-25T08:20:31.444Z,5.47
2022-11-25T08:25:34.256Z,5.46
2022-11-25T08:30:37.213Z,5.55
2022-11-25T08:35:41.379Z,5.59
2022-11-25T08:40:45.475Z,5.70
2022-11-25T08:45:48.597Z,5.81
2022-11-25T08:50:55.529Z,5.88
2022-11-25T08:55:58.277Z,5.89
2022-11-25T09:01:01.200Z,5.95
2022-11-25T09:06:06.071Z,6.07
2022-11-25T09:11:09.881Z,6.15
2022-11-25T09:16:12.829Z,6.24
2022-11-25T09:21:18.657Z,6.21
2022-11-25T09:26:24.632Z,6.45
2022-11-25T09:31:27.659Z,6.62
2022-11-25T09:36:31.874Z,6.70
2022-11-25T09:42:11.436Z,6.72
2022-11-25T09:47:23.707Z,6.81
2022-11-25T09:52:38.263Z,6.84
2022-11-25T09:57:59.111Z,6.89
2022-11-25T10:03:07.903Z,7.05
2022-11-25T10:08:16.848Z,7.13
2022-11-25T10:13:23.169Z,7.21
2022-11-25T10:18:30.868Z,7.26
2022-11-25T10:23:38.630Z,7.48
2022-11-25T10:28:46.402Z,7.45
2022-11-25T10:33:52.864Z,7.90
2022-11-25T10:39:00.945Z,8.52
2022-11-25T10:44:04.955Z,8.78
2022-11-25T10:49:15.695Z,8.59
2022-11-25T10:54:27.495Z,8.37
2022-11-25T10:59:33.244Z,8.25
2022-11-25T11:04:37.673Z,8.03
2022-11-25T11:09:42.095Z,8.19
2022-11-25T11:14:44.858Z,8.34
2022-11-25T11:20:02.151Z,8.46
2022-11-25T11:25:24.275Z,8.52
2022-11-25T11:30:29.459Z,8.83
2022-11-25T11:35:47.903Z,9.02
2022-11-25T11:40:56.264Z,8.75
2022-11-25T11:46:12.661Z,8.70
2022-11-25T11:51:23.807Z,8.45
2022-11-25T11:56:36.186Z,8.24
2022-11-25T12:01:50.070Z,8.40
2022-11-25T12:07:03.621Z,8.11
2022-11-25T12:12:14.271Z,8.52
2022-11-25T12:17:21.756Z,9.03
2022-11-25T12:22:29.942Z,8.99
2022-11-25T12:27:38.751Z,9.07
2022-11-25T12:32:58.070Z,9.44
2022-11-25T12:38:09.919Z,9.73
2022-11-25T12:43:26.830Z,9.77
2022-11-25T12:48:29.656Z,9.81
2022-11-25T12:53:42.635Z,10.06
2022-11-25T12:59:04.360Z,9.24
2022-11-25T13:04:38.453Z,9.00
2022-11-25T13:09:57.572Z,8.56
2022-11-25T13:15:21.520Z,9.35
2022-11-25T13:20:38.081Z,9.79
2022-11-25T13:25:43.380Z,10.31
2022-11-25T13:30:51.514Z,10.53
2022-11-25T13:35:55.151Z,10.41
2022-11-25T13:41:00.208Z,10.56
2022-11-25T13:46:04.489Z,10.73
2022-11-25T13:51:19.727Z,10.28
2022-11-25T13:56:29.413Z,9.65
2022-11-25T14:01:33.532Z,9.48
2022-11-25T14:07:02.760Z,9.27
2022-11-25T14:12:34.696Z,9.16
2022-11-25T14:18:09.932Z,9.12
2022-11-25T14:23:50.593Z,9.12
2022-11-25T14:28:58.906Z,9.08
2022-11-25T14:34:12.017Z,8.89
2022-11-25T14:39:22.750Z,8.96
2022-11-25T14:44:29.559Z,8.81
2022-11-25T14:49:55.730Z,8.58
2022-11-25T14:55:12.783Z,8.46
2022-11-25T15:00:17.789Z,8.35
2022-11-25T15:05:26.059Z,8.30
2022-11-25T15:10:42.054Z,8.32
2022-11-25T15:15:49.319Z,8.26
2022-11-25T15:20:58.359Z,8.44
2022-11-25T15:26:02.162Z,8.42
2022-11-25T15:31:10.488Z,8.43
2022-11-25T15:36:14.711Z,8.42
2022-11-25T15:41:21.637Z,8.33
2022-11-25T15:46:25.558Z,8.35
2022-11-25T15:51:41.573Z,8.24
2022-11-25T15:56:48.964Z,8.17
2022-11-25T16:01:51.816Z,8.21
2022-11-25T16:06:59.499Z,8.21
2022-11-25T16:12:07.403Z,8.24
2022-11-25T16:17:13.011Z,8.33
2022-11-25T16:22:19.900Z,8.21
2022-11-25T16:27:25.318Z,8.17
2022-11-25T16:32:31.508Z,8.31
2022-11-25T16:37:35.619Z,8.26
2022-11-25T16:42:39.052Z,8.24
2022-11-25T16:47:41.772Z,8.28
2022-11-25T16:52:45.724Z,8.31
2022-11-25T16:57:48.468Z,8.25
2022-11-25T17:02:51.264Z,8.16
2022-11-25T17:07:55.477Z,8.30
2022-11-25T17:12:58.380Z,8.43
2022-11-25T17:18:01.920Z,8.49
2022-11-25T17:23:13.124Z,8.34
2022-11-25T17:28:18.387Z,8.32
2022-11-25T17:33:21.322Z,7.94
2022-11-25T17:38:25.448Z,7.87
2022-11-25T17:43:34.363Z,7.79
2022-11-25T17:48:37.990Z,7.88
2022-11-25T17:53:42.755Z,7.72
2022-11-25T17:58:45.796Z,7.83
2022-11-25T18:03:49.440Z,7.82
2022-11-25T18:08:53.533Z,7.65
2022-11-25T18:13:56.522Z,7.34
2022-11-25T18:18:59.290Z,7.44
2022-11-25T18:24:03.483Z,7.42
2022-11-25T18:29:07.975Z,7.23
2022-11-25T18:34:15.374Z,7.13
2022-11-25T18:39:19.777Z,7.21
2022-11-25T18:44:37.498Z,6.99
2022-11-25T18:49:40.374Z,7.15
2022-11-25T18:54:44.478Z,7.26
2022-11-25T18:59:55.992Z,6.97
2022-11-25T19:05:03.828Z,6.91
2022-11-25T19:10:13.577Z,7.30
2022-11-25T19:15:21.286Z,7.40
2022-11-25T19:20:25.001Z,7.44
2022-11-25T19:25:29.568Z,7.44
2022-11-25T19:30:33.384Z,7.54
2022-11-25T19:35:38.558Z,7.43
2022-11-25T19:40:42.755Z,7.62
2022-11-25T19:45:46.439Z,7.52
2022-11-25T19:50:51.925Z,7.69
2022-11-25T19:55:56.030Z,7.39
2022-11-25T20:01:03.090Z,7.60
2022-11-25T20:06:06.448Z,7.43
2022-11-25T20:11:13.000Z,7.49
2022-11-25T20:16:19.124Z,7.38
2022-11-25T20:21:27.706Z,7.19
2022-11-25T20:26:35.248Z,7.24
2022-11-25T20:31:38.013Z,7.41
2022-11-25T20:36:42.294Z,7.64
2022-11-25T20:41:49.103Z,7.30
2022-11-25T20:46:51.879Z,7.48
2022-11-25T20:51:54.661Z,7.25
2022-11-25T20:57:00.592Z,7.06
2022-11-25T21:02:03.388Z,7.03
2022-11-25T21:07:11.552Z,7.20
2022-11-25T21:12:19.590Z,6.98
2022-11-25T21:17:22.497Z,7.17
2022-11-25T21:22:25.097Z,7.23
2022-11-25T21:27:29.325Z,7.28
2022-11-25T21:32:32.171Z,7.37
2022-11-25T21:37:36.662Z,7.34
2022-11-25T21:42:40.819Z,7.25
2022-11-25T21:47:43.623Z,7.17
2022-11-25T21:52:46.601Z,7.08
2022-11-25T21:57:51.318Z,7.16
2022-11-25T22:02:54.153Z,7.05
2022-11-25T22:07:57.146Z,7.02
2022-11-25T22:13:01.511Z,6.90
2022-11-25T22:18:04.275Z,6.83
2022-11-25T22:23:14.851Z,6.63
2022-11-25T22:28:21.506Z,6.47
2022-11-25T22:33:29.891Z,6.49
2022-11-25T22:38:32.666Z,6.46
2022-11-25T22:43:43.814Z,6.36
2022-11-25T22:48:47.126Z,6.38
2022-11-25T22:53:49.977Z,6.53
2022-11-25T22:58:59.980Z,6.31
2022-11-25T23:04:03.013Z,6.45
2022-11-25T23:09:11.189Z,6.29
2022-11-25T23:14:15.573Z,6.23
2022-11-25T23:19:18.341Z,6.28
2022-11-25T23:24:21.118Z,6.34
2022-11-25T23:29:25.548Z,6.48
2022-11-25T23:34:28.356Z,6.44
2022-11-25T23:39:32.347Z,6.41
2022-11-25T23:44:36.805Z,6.51
2022-11-25T23:49:44.098Z,6.68
2022-11-25T23:54:48.812Z,6.66
2022-11-25T23:59:53.614Z,6.21
